sensor_id;sensor_type;location;lat;lon;timestamp;pressure;altitude;pressure_sealevel;temperature;humidity
60373;BME280;46216;52.220;5.134;2022-07-23T00:00:15;102116.81;;;16.45;100.00
60373;BME280;46216;52.220;5.134;2022-07-23T00:02:41;102123.41;;;16.41;100.00
60373;BME280;46216;52.220;5.134;2022-07-23T00:05:07;102118.03;;;16.41;100.00
60373;BME280;46216;52.220;5.134;2022-07-23T00:07:33;102110.28;;;16.36;100.00
60373;BME280;46216;52.220;5.134;2022-07-23T00:09:58;102115.81;;;16.35;100.00
60373;BME280;46216;52.220;5.134;2022-07-23T00:12:24;102114.06;;;16.33;100.00
60373;BME280;46216;52.220;5.134;2022-07-23T00:14:49;102116.75;;;16.33;100.00
60373;BME280;46216;52.220;5.134;2022-07-23T00:17:14;102111.97;;;16.26;100.00
60373;BME280;46216;52.220;5.134;2022-07-23T00:19:40;102106.59;;;16.26;100.00
60373;BME280;46216;52.220;5.134;2022-07-23T00:22:05;102110.03;;;16.28;100.00
60373;BME280;46216;52.220;5.134;2022-07-23T00:24:31;102105.59;;;16.27;100.00
60373;BME280;46216;52.220;5.134;2022-07-23T00:26:56;102105.75;;;16.25;100.00
60373;BME280;46216;52.220;5.134;2022-07-23T00:29:22;102108.28;;;16.27;100.00
60373;BME280;46216;52.220;5.134;2022-07-23T00:31:47;102103.66;;;16.18;100.00
60373;BME280;46216;52.220;5.134;2022-07-23T00:34:12;102096.28;;;16.20;100.00
60373;BME280;46216;52.220;5.134;2022-07-23T00:36:38;102098.50;;;16.15;100.00
60373;BME280;46216;52.220;5.134;2022-07-23T00:39:04;102107.78;;;16.11;100.00
60373;BME280;46216;52.220;5.134;2022-07-23T00:41:29;102098.97;;;16.08;100.00
60373;BME280;46216;52.220;5.134;2022-07-23T00:43:54;102095.28;;;16.09;100.00
60373;BME280;46216;52.220;5.134;2022-07-23T00:46:21;102090.13;;;16.06;100.00
60373;BME280;46216;52.220;5.134;2022-07-23T00:48:46;102091.56;;;15.99;100.00
60373;BME280;46216;52.220;5.134;2022-07-23T00:51:11;102090.22;;;15.94;100.00
60373;BME280;46216;52.220;5.134;2022-07-23T00:53:37;102085.34;;;15.99;100.00
60373;BME280;46216;52.220;5.134;2022-07-23T00:56:02;102088.03;;;15.99;100.00
60373;BME280;46216;52.220;5.134;2022-07-23T00:58:28;102089.06;;;15.85;100.00
60373;BME280;46216;52.220;5.134;2022-07-23T01:00:53;102077.13;;;15.89;100.00
60373;BME280;46216;52.220;5.134;2022-07-23T01:03:19;102079.53;;;15.81;100.00
60373;BME280;46216;52.220;5.134;2022-07-23T01:05:47;102092.44;;;15.76;100.00
60373;BME280;46216;52.220;5.134;2022-07-23T01:08:12;102093.34;;;15.76;100.00
60373;BME280;46216;52.220;5.134;2022-07-23T01:10:38;102082.59;;;15.76;100.00
60373;BME280;46216;52.220;5.134;2022-07-23T01:13:06;102076.97;;;15.79;100.00
60373;BME280;46216;52.220;5.134;2022-07-23T01:15:34;102071.19;;;15.73;100.00
60373;BME280;46216;52.220;5.134;2022-07-23T01:18:00;102064.94;;;15.72;100.00
60373;BME280;46216;52.220;5.134;2022-07-23T01:20:25;102068.38;;;15.74;100.00
60373;BME280;46216;52.220;5.134;2022-07-23T01:22:51;102073.34;;;15.68;100.00
60373;BME280;46216;52.220;5.134;2022-07-23T01:25:17;102068.84;;;15.68;100.00
60373;BME280;46216;52.220;5.134;2022-07-23T01:27:43;102060.06;;;15.66;100.00
60373;BME280;46216;52.220;5.134;2022-07-23T01:30:09;102062.94;;;15.63;100.00
60373;BME280;46216;52.220;5.134;2022-07-23T01:32:34;102061.31;;;15.60;100.00
60373;BME280;46216;52.220;5.134;2022-07-23T01:35:00;102070.38;;;15.59;100.00
60373;BME280;46216;52.220;5.134;2022-07-23T01:37:26;102077.53;;;15.59;100.00
60373;BME280;46216;52.220;5.134;2022-07-23T01:39:51;102057.25;;;15.55;100.00
60373;BME280;46216;52.220;5.134;2022-07-23T01:42:16;102056.41;;;15.54;100.00
60373;BME280;46216;52.220;5.134;2022-07-23T01:44:42;102065.66;;;15.50;100.00
60373;BME280;46216;52.220;5.134;2022-07-23T01:47:07;102068.06;;;15.42;100.00
60373;BME280;46216;52.220;5.134;2022-07-23T01:49:32;102056.22;;;15.45;100.00
60373;BME280;46216;52.220;5.134;2022-07-23T01:51:58;102068.16;;;15.41;100.00
60373;BME280;46216;52.220;5.134;2022-07-23T01:54:31;102067.31;;;15.40;100.00
60373;BME280;46216;52.220;5.134;2022-07-23T01:56:57;102065.47;;;15.41;100.00
60373;BME280;46216;52.220;5.134;2022-07-23T01:59:23;102070.97;;;15.39;100.00
60373;BME280;46216;52.220;5.134;2022-07-23T02:01:48;102067.41;;;15.38;100.00
60373;BME280;46216;52.220;5.134;2022-07-23T02:04:16;102065.28;;;15.31;100.00
60373;BME280;46216;52.220;5.134;2022-07-23T02:06:41;102059.50;;;15.24;100.00
60373;BME280;46216;52.220;5.134;2022-07-23T02:09:07;102063.06;;;15.25;100.00
60373;BME280;46216;52.220;5.134;2022-07-23T02:11:32;102066.50;;;15.27;100.00
60373;BME280;46216;52.220;5.134;2022-07-23T02:13:57;102067.25;;;15.29;100.00
60373;BME280;46216;52.220;5.134;2022-07-23T02:16:23;102060.38;;;15.25;100.00
60373;BME280;46216;52.220;5.134;2022-07-23T02:18:48;102067.34;;;15.27;100.00
60373;BME280;46216;52.220;5.134;2022-07-23T02:21:13;102064.88;;;15.24;100.00
60373;BME280;46216;52.220;5.134;2022-07-23T02:23:39;102055.88;;;15.25;100.00
60373;BME280;46216;52.220;5.134;2022-07-23T02:26:04;102054.25;;;15.23;100.00
60373;BME280;46216;52.220;5.134;2022-07-23T02:28:29;102052.66;;;15.20;100.00
60373;BME280;46216;52.220;5.134;2022-07-23T02:30:55;102058.47;;;15.14;100.00
60373;BME280;46216;52.220;5.134;2022-07-23T02:33:20;102064.25;;;15.21;100.00
60373;BME280;46216;52.220;5.134;2022-07-23T02:35:45;102066.75;;;15.11;100.00
60373;BME280;46216;52.220;5.134;2022-07-23T02:38:11;102067.06;;;15.19;100.00
60373;BME280;46216;52.220;5.134;2022-07-23T02:40:36;102076.06;;;15.18;100.00
60373;BME280;46216;52.220;5.134;2022-07-23T02:43:01;102076.94;;;15.19;100.00
60373;BME280;46216;52.220;5.134;2022-07-23T02:45:27;102078.88;;;15.17;100.00
60373;BME280;46216;52.220;5.134;2022-07-23T02:47:52;102073.63;;;15.15;100.00
60373;BME280;46216;52.220;5.134;2022-07-23T02:50:17;102079.53;;;15.07;100.00
60373;BME280;46216;52.220;5.134;2022-07-23T02:52:43;102090.19;;;14.96;100.00
60373;BME280;46216;52.220;5.134;2022-07-23T02:55:09;102092.25;;;14.93;100.00
60373;BME280;46216;52.220;5.134;2022-07-23T02:57:34;102100.16;;;14.94;100.00
60373;BME280;46216;52.220;5.134;2022-07-23T02:59:59;102102.13;;;14.92;100.00
60373;BME280;46216;52.220;5.134;2022-07-23T03:02:25;102089.66;;;14.91;100.00
60373;BME280;46216;52.220;5.134;2022-07-23T03:04:50;102091.81;;;14.86;100.00
60373;BME280;46216;52.220;5.134;2022-07-23T03:07:16;102095.69;;;14.82;100.00
60373;BME280;46216;52.220;5.134;2022-07-23T03:09:42;102095.47;;;14.85;100.00
60373;BME280;46216;52.220;5.134;2022-07-23T03:12:07;102096.53;;;14.82;100.00
60373;BME280;46216;52.220;5.134;2022-07-23T03:14:32;102103.75;;;14.82;100.00
60373;BME280;46216;52.220;5.134;2022-07-23T03:16:58;102108.25;;;14.81;100.00
60373;BME280;46216;52.220;5.134;2022-07-23T03:19:25;102100.28;;;14.80;100.00
60373;BME280;46216;52.220;5.134;2022-07-23T03:21:50;102099.78;;;14.75;100.00
60373;BME280;46216;52.220;5.134;2022-07-23T03:24:15;102099.00;;;14.73;100.00
60373;BME280;46216;52.220;5.134;2022-07-23T03:26:42;102101.25;;;14.79;100.00
60373;BME280;46216;52.220;5.134;2022-07-23T03:29:08;102102.97;;;14.80;100.00
60373;BME280;46216;52.220;5.134;2022-07-23T03:31:33;102097.81;;;14.77;100.00
60373;BME280;46216;52.220;5.134;2022-07-23T03:33:58;102098.03;;;14.74;100.00
60373;BME280;46216;52.220;5.134;2022-07-23T03:36:24;102105.13;;;14.75;100.00
60373;BME280;46216;52.220;5.134;2022-07-23T03:38:49;102098.69;;;14.77;100.00
60373;BME280;46216;52.220;5.134;2022-07-23T03:41:16;102096.97;;;14.76;100.00
60373;BME280;46216;52.220;5.134;2022-07-23T03:43:41;102100.06;;;14.83;100.00
60373;BME280;46216;52.220;5.134;2022-07-23T03:46:06;102100.84;;;14.85;100.00
60373;BME280;46216;52.220;5.134;2022-07-23T03:48:32;102089.47;;;14.81;100.00
60373;BME280;46216;52.220;5.134;2022-07-23T03:50:57;102093.53;;;14.87;100.00
60373;BME280;46216;52.220;5.134;2022-07-23T03:53:22;102077.19;;;14.90;100.00
60373;BME280;46216;52.220;5.134;2022-07-23T03:55:47;102075.91;;;14.83;100.00
60373;BME280;46216;52.220;5.134;2022-07-23T03:58:13;102075.72;;;14.86;100.00
60373;BME280;46216;52.220;5.134;2022-07-23T04:00:38;102077.00;;;14.80;100.00
60373;BME280;46216;52.220;5.134;2022-07-23T04:03:04;102073.16;;;14.84;100.00
60373;BME280;46216;52.220;5.134;2022-07-23T04:05:29;102070.78;;;14.80;100.00
60373;BME280;46216;52.220;5.134;2022-07-23T04:07:54;102086.66;;;14.83;100.00
60373;BME280;46216;52.220;5.134;2022-07-23T04:10:20;102084.28;;;14.91;100.00
60373;BME280;46216;52.220;5.134;2022-07-23T04:12:45;102085.88;;;14.94;100.00
60373;BME280;46216;52.220;5.134;2022-07-23T04:15:10;102088.69;;;14.92;100.00
60373;BME280;46216;52.220;5.134;2022-07-23T04:17:36;102091.38;;;14.92;100.00
60373;BME280;46216;52.220;5.134;2022-07-23T04:20:02;102090.53;;;14.92;100.00
60373;BME280;46216;52.220;5.134;2022-07-23T04:22:28;102094.69;;;14.96;100.00
60373;BME280;46216;52.220;5.134;2022-07-23T04:24:53;102093.09;;;14.93;100.00
60373;BME280;46216;52.220;5.134;2022-07-23T04:27:18;102093.09;;;14.93;100.00
60373;BME280;46216;52.220;5.134;2022-07-23T04:29:44;102090.31;;;14.95;100.00
60373;BME280;46216;52.220;5.134;2022-07-23T04:32:09;102093.50;;;15.00;100.00
60373;BME280;46216;52.220;5.134;2022-07-23T04:34:34;102094.16;;;15.03;100.00
60373;BME280;46216;52.220;5.134;2022-07-23T04:36:59;102095.84;;;15.04;100.00
60373;BME280;46216;52.220;5.134;2022-07-23T04:39:25;102104.66;;;15.06;100.00
60373;BME280;46216;52.220;5.134;2022-07-23T04:41:50;102098.53;;;15.04;100.00
60373;BME280;46216;52.220;5.134;2022-07-23T04:44:15;102106.28;;;15.09;100.00
60373;BME280;46216;52.220;5.134;2022-07-23T04:46:41;102101.22;;;15.04;100.00
60373;BME280;46216;52.220;5.134;2022-07-23T04:49:06;102109.91;;;15.08;100.00
60373;BME280;46216;52.220;5.134;2022-07-23T04:51:32;102114.84;;;15.14;100.00
60373;BME280;46216;52.220;5.134;2022-07-23T04:53:57;102114.75;;;15.16;100.00
60373;BME280;46216;52.220;5.134;2022-07-23T04:56:22;102107.00;;;15.24;100.00
60373;BME280;46216;52.220;5.134;2022-07-23T04:58:48;102102.81;;;15.20;100.00
60373;BME280;46216;52.220;5.134;2022-07-23T05:01:13;102112.59;;;15.21;100.00
60373;BME280;46216;52.220;5.134;2022-07-23T05:03:39;102110.88;;;15.20;100.00
60373;BME280;46216;52.220;5.134;2022-07-23T05:06:04;102109.06;;;15.20;100.00
60373;BME280;46216;52.220;5.134;2022-07-23T05:08:29;102098.22;;;15.22;100.00
60373;BME280;46216;52.220;5.134;2022-07-23T05:10:55;102095.81;;;15.30;100.00
60373;BME280;46216;52.220;5.134;2022-07-23T05:13:20;102099.00;;;15.35;100.00
60373;BME280;46216;52.220;5.134;2022-07-23T05:15:46;102104.38;;;15.35;100.00
60373;BME280;46216;52.220;5.134;2022-07-23T05:18:11;102100.31;;;15.42;100.00
60373;BME280;46216;52.220;5.134;2022-07-23T05:20:36;102108.66;;;15.50;100.00
60373;BME280;46216;52.220;5.134;2022-07-23T05:23:02;102099.16;;;15.57;100.00
60373;BME280;46216;52.220;5.134;2022-07-23T05:25:28;102099.38;;;15.67;100.00
60373;BME280;46216;52.220;5.134;2022-07-23T05:27:53;102106.88;;;15.75;100.00
60373;BME280;46216;52.220;5.134;2022-07-23T05:30:19;102099.97;;;15.83;100.00
60373;BME280;46216;52.220;5.134;2022-07-23T05:32:44;102106.81;;;15.88;100.00
60373;BME280;46216;52.220;5.134;2022-07-23T05:35:10;102102.34;;;15.99;100.00
60373;BME280;46216;52.220;5.134;2022-07-23T05:37:36;102108.88;;;16.08;100.00
60373;BME280;46216;52.220;5.134;2022-07-23T05:40:06;102119.25;;;16.13;100.00
60373;BME280;46216;52.220;5.134;2022-07-23T05:42:33;102116.34;;;16.16;100.00
60373;BME280;46216;52.220;5.134;2022-07-23T05:44:59;102121.50;;;16.19;100.00
60373;BME280;46216;52.220;5.134;2022-07-23T05:47:24;102122.00;;;16.24;100.00
60373;BME280;46216;52.220;5.134;2022-07-23T05:49:50;102119.72;;;16.30;100.00
60373;BME280;46216;52.220;5.134;2022-07-23T05:52:15;102127.66;;;16.32;100.00
60373;BME280;46216;52.220;5.134;2022-07-23T05:54:40;102124.72;;;16.35;100.00
60373;BME280;46216;52.220;5.134;2022-07-23T05:57:06;102128.16;;;16.37;100.00
60373;BME280;46216;52.220;5.134;2022-07-23T05:59:32;102121.56;;;16.41;100.00
60373;BME280;46216;52.220;5.134;2022-07-23T06:01:57;102126.34;;;16.49;100.00
60373;BME280;46216;52.220;5.134;2022-07-23T06:04:23;102130.66;;;16.51;100.00
60373;BME280;46216;52.220;5.134;2022-07-23T06:06:48;102133.59;;;16.60;100.00
60373;BME280;46216;52.220;5.134;2022-07-23T06:09:13;102132.13;;;16.67;100.00
60373;BME280;46216;52.220;5.134;2022-07-23T06:11:40;102119.19;;;16.72;100.00
60373;BME280;46216;52.220;5.134;2022-07-23T06:14:05;102124.97;;;16.78;100.00
60373;BME280;46216;52.220;5.134;2022-07-23T06:16:30;102114.81;;;16.82;100.00
60373;BME280;46216;52.220;5.134;2022-07-23T06:18:56;102121.69;;;16.86;100.00
60373;BME280;46216;52.220;5.134;2022-07-23T06:21:21;102109.44;;;16.93;100.00
60373;BME280;46216;52.220;5.134;2022-07-23T06:23:46;102115.81;;;16.92;100.00
60373;BME280;46216;52.220;5.134;2022-07-23T06:26:12;102118.38;;;16.94;100.00
60373;BME280;46216;52.220;5.134;2022-07-23T06:28:37;102122.41;;;16.99;100.00
60373;BME280;46216;52.220;5.134;2022-07-23T06:31:02;102113.13;;;17.03;100.00
60373;BME280;46216;52.220;5.134;2022-07-23T06:33:28;102116.78;;;17.02;100.00
60373;BME280;46216;52.220;5.134;2022-07-23T06:35:53;102120.56;;;17.11;100.00
60373;BME280;46216;52.220;5.134;2022-07-23T06:38:18;102120.69;;;17.21;100.00
60373;BME280;46216;52.220;5.134;2022-07-23T06:40:44;102123.88;;;17.26;100.00
60373;BME280;46216;52.220;5.134;2022-07-23T06:43:10;102129.13;;;17.39;100.00
60373;BME280;46216;52.220;5.134;2022-07-23T06:45:35;102122.88;;;17.38;100.00
60373;BME280;46216;52.220;5.134;2022-07-23T06:48:01;102117.97;;;17.55;100.00
60373;BME280;46216;52.220;5.134;2022-07-23T06:50:28;102118.66;;;17.68;100.00
60373;BME280;46216;52.220;5.134;2022-07-23T06:52:53;102128.34;;;17.70;100.00
60373;BME280;46216;52.220;5.134;2022-07-23T06:55:18;102124.81;;;17.70;100.00
60373;BME280;46216;52.220;5.134;2022-07-23T06:57:44;102120.00;;;17.62;100.00
60373;BME280;46216;52.220;5.134;2022-07-23T07:00:10;102126.00;;;17.66;100.00
60373;BME280;46216;52.220;5.134;2022-07-23T07:02:35;102118.16;;;17.63;100.00
60373;BME280;46216;52.220;5.134;2022-07-23T07:05:01;102123.22;;;17.67;100.00
60373;BME280;46216;52.220;5.134;2022-07-23T07:07:26;102121.59;;;17.76;100.00
60373;BME280;46216;52.220;5.134;2022-07-23T07:09:52;102123.94;;;17.81;100.00
60373;BME280;46216;52.220;5.134;2022-07-23T07:12:17;102111.50;;;17.89;100.00
60373;BME280;46216;52.220;5.134;2022-07-23T07:14:42;102114.22;;;17.89;100.00
60373;BME280;46216;52.220;5.134;2022-07-23T07:17:08;102117.44;;;17.83;100.00
60373;BME280;46216;52.220;5.134;2022-07-23T07:19:33;102117.69;;;17.80;100.00
60373;BME280;46216;52.220;5.134;2022-07-23T07:21:58;102134.72;;;17.81;100.00
60373;BME280;46216;52.220;5.134;2022-07-23T07:24:24;102128.81;;;17.87;100.00
60373;BME280;46216;52.220;5.134;2022-07-23T07:26:49;102132.22;;;17.89;100.00
60373;BME280;46216;52.220;5.134;2022-07-23T07:29:14;102133.34;;;17.86;100.00
60373;BME280;46216;52.220;5.134;2022-07-23T07:31:40;102136.13;;;17.96;100.00
60373;BME280;46216;52.220;5.134;2022-07-23T07:34:05;102137.63;;;17.89;100.00
60373;BME280;46216;52.220;5.134;2022-07-23T07:36:30;102143.13;;;17.99;100.00
60373;BME280;46216;52.220;5.134;2022-07-23T07:38:56;102132.38;;;17.87;100.00
60373;BME280;46216;52.220;5.134;2022-07-23T07:41:21;102138.97;;;17.94;100.00
60373;BME280;46216;52.220;5.134;2022-07-23T07:43:51;102146.66;;;17.99;100.00
60373;BME280;46216;52.220;5.134;2022-07-23T07:46:16;102142.63;;;18.05;100.00
60373;BME280;46216;52.220;5.134;2022-07-23T07:48:42;102143.28;;;18.18;100.00
60373;BME280;46216;52.220;5.134;2022-07-23T07:51:07;102135.19;;;18.18;100.00
60373;BME280;46216;52.220;5.134;2022-07-23T07:53:33;102143.75;;;18.23;100.00
60373;BME280;46216;52.220;5.134;2022-07-23T07:55:58;102145.19;;;18.27;100.00
60373;BME280;46216;52.220;5.134;2022-07-23T07:58:23;102144.09;;;18.30;100.00
60373;BME280;46216;52.220;5.134;2022-07-23T08:00:49;102142.47;;;18.38;100.00
60373;BME280;46216;52.220;5.134;2022-07-23T08:03:14;102148.91;;;18.47;100.00
60373;BME280;46216;52.220;5.134;2022-07-23T08:05:39;102146.53;;;18.54;100.00
60373;BME280;46216;52.220;5.134;2022-07-23T08:08:05;102147.53;;;18.53;100.00
60373;BME280;46216;52.220;5.134;2022-07-23T08:10:30;102148.97;;;18.57;100.00
60373;BME280;46216;52.220;5.134;2022-07-23T08:12:57;102151.56;;;18.58;100.00
60373;BME280;46216;52.220;5.134;2022-07-23T08:15:24;102145.28;;;18.58;100.00
60373;BME280;46216;52.220;5.134;2022-07-23T08:17:50;102157.00;;;18.68;100.00
60373;BME280;46216;52.220;5.134;2022-07-23T08:20:17;102144.16;;;18.72;100.00
60373;BME280;46216;52.220;5.134;2022-07-23T08:22:58;102153.09;;;18.72;100.00
60373;BME280;46216;52.220;5.134;2022-07-23T08:25:29;102152.88;;;18.85;100.00
60373;BME280;46216;52.220;5.134;2022-07-23T08:27:55;102155.09;;;19.01;100.00
60373;BME280;46216;52.220;5.134;2022-07-23T08:30:21;102153.84;;;19.05;100.00
60373;BME280;46216;52.220;5.134;2022-07-23T08:32:58;102141.59;;;19.01;100.00
60373;BME280;46216;52.220;5.134;2022-07-23T08:35:37;102147.56;;;19.04;100.00
60373;BME280;46216;52.220;5.134;2022-07-23T08:38:05;102136.97;;;19.12;100.00
60373;BME280;46216;52.220;5.134;2022-07-23T08:40:34;102141.06;;;19.07;100.00
60373;BME280;46216;52.220;5.134;2022-07-23T08:43:00;102144.44;;;18.99;100.00
60373;BME280;46216;52.220;5.134;2022-07-23T08:45:27;102128.97;;;19.11;100.00
60373;BME280;46216;52.220;5.134;2022-07-23T08:47:54;102137.09;;;19.11;100.00
60373;BME280;46216;52.220;5.134;2022-07-23T08:50:21;102138.25;;;19.18;100.00
60373;BME280;46216;52.220;5.134;2022-07-23T08:52:51;102142.56;;;19.30;100.00
60373;BME280;46216;52.220;5.134;2022-07-23T08:55:18;102146.56;;;19.26;100.00
60373;BME280;46216;52.220;5.134;2022-07-23T08:57:45;102138.91;;;19.41;100.00
60373;BME280;46216;52.220;5.134;2022-07-23T09:00:13;102141.03;;;19.37;100.00
60373;BME280;46216;52.220;5.134;2022-07-23T09:02:41;102144.47;;;19.49;100.00
60373;BME280;46216;52.220;5.134;2022-07-23T09:05:07;102148.47;;;19.55;100.00
60373;BME280;46216;52.220;5.134;2022-07-23T09:07:32;102141.44;;;19.64;100.00
60373;BME280;46216;52.220;5.134;2022-07-23T09:10:07;102151.75;;;19.58;100.00
60373;BME280;46216;52.220;5.134;2022-07-23T09:12:32;102148.94;;;19.60;100.00
60373;BME280;46216;52.220;5.134;2022-07-23T09:15:04;102145.84;;;19.65;100.00
60373;BME280;46216;52.220;5.134;2022-07-23T09:17:40;102149.91;;;19.59;100.00
60373;BME280;46216;52.220;5.134;2022-07-23T09:20:13;102140.00;;;19.69;100.00
60373;BME280;46216;52.220;5.134;2022-07-23T09:22:47;102146.22;;;19.60;100.00
60373;BME280;46216;52.220;5.134;2022-07-23T09:25:18;102140.72;;;19.71;100.00
60373;BME280;46216;52.220;5.134;2022-07-23T09:27:54;102140.03;;;19.79;100.00
60373;BME280;46216;52.220;5.134;2022-07-23T09:30:25;102139.91;;;19.80;100.00
60373;BME280;46216;52.220;5.134;2022-07-23T09:33:13;102137.59;;;19.85;100.00
60373;BME280;46216;52.220;5.134;2022-07-23T09:35:53;102149.19;;;19.97;100.00
60373;BME280;46216;52.220;5.134;2022-07-23T09:38:20;102148.88;;;19.91;100.00
60373;BME280;46216;52.220;5.134;2022-07-23T09:40:46;102156.84;;;20.02;100.00
60373;BME280;46216;52.220;5.134;2022-07-23T09:43:14;102146.31;;;20.08;100.00
60373;BME280;46216;52.220;5.134;2022-07-23T09:45:51;102151.88;;;20.17;100.00
60373;BME280;46216;52.220;5.134;2022-07-23T09:48:16;102142.75;;;20.27;100.00
60373;BME280;46216;52.220;5.134;2022-07-23T09:50:43;102148.03;;;20.29;100.00
60373;BME280;46216;52.220;5.134;2022-07-23T09:53:09;102150.19;;;20.25;100.00
60373;BME280;46216;52.220;5.134;2022-07-23T09:55:36;102139.19;;;20.17;100.00
60373;BME280;46216;52.220;5.134;2022-07-23T09:58:08;102149.03;;;20.18;100.00
60373;BME280;46216;52.220;5.134;2022-07-23T10:00:40;102151.59;;;20.29;100.00
60373;BME280;46216;52.220;5.134;2022-07-23T10:03:07;102141.59;;;20.30;100.00
60373;BME280;46216;52.220;5.134;2022-07-23T10:05:34;102136.47;;;20.37;100.00
60373;BME280;46216;52.220;5.134;2022-07-23T10:08:02;102149.31;;;20.64;100.00
60373;BME280;46216;52.220;5.134;2022-07-23T10:10:28;102145.28;;;20.68;100.00
60373;BME280;46216;52.220;5.134;2022-07-23T10:12:55;102143.75;;;20.65;100.00
60373;BME280;46216;52.220;5.134;2022-07-23T10:15:50;102152.38;;;20.88;100.00
60373;BME280;46216;52.220;5.134;2022-07-23T10:18:15;102140.38;;;20.91;100.00
60373;BME280;46216;52.220;5.134;2022-07-23T10:20:41;102151.19;;;21.00;100.00
60373;BME280;46216;52.220;5.134;2022-07-23T10:23:29;102134.38;;;20.97;100.00
60373;BME280;46216;52.220;5.134;2022-07-23T10:26:11;102144.00;;;21.19;100.00
60373;BME280;46216;52.220;5.134;2022-07-23T10:32:02;102143.66;;;21.32;100.00
60373;BME280;46216;52.220;5.134;2022-07-23T10:36:59;102139.38;;;21.29;100.00
60373;BME280;46216;52.220;5.134;2022-07-23T10:39:33;102142.44;;;21.54;100.00
60373;BME280;46216;52.220;5.134;2022-07-23T10:42:13;102140.66;;;21.62;100.00
60373;BME280;46216;52.220;5.134;2022-07-23T10:44:41;102135.41;;;21.79;100.00
60373;BME280;46216;52.220;5.134;2022-07-23T10:47:08;102129.38;;;21.85;100.00
60373;BME280;46216;52.220;5.134;2022-07-23T10:49:53;102130.59;;;21.72;100.00
60373;BME280;46216;52.220;5.134;2022-07-23T10:52:21;102126.66;;;21.85;100.00
60373;BME280;46216;52.220;5.134;2022-07-23T10:54:56;102127.66;;;21.84;100.00
60373;BME280;46216;52.220;5.134;2022-07-23T10:57:50;102118.69;;;22.01;100.00
60373;BME280;46216;52.220;5.134;2022-07-23T11:00:28;102124.72;;;22.13;100.00
60373;BME280;46216;52.220;5.134;2022-07-23T11:03:05;102120.13;;;22.31;100.00
60373;BME280;46216;52.220;5.134;2022-07-23T11:05:50;102120.09;;;22.23;100.00
60373;BME280;46216;52.220;5.134;2022-07-23T11:08:18;102114.72;;;22.31;100.00
60373;BME280;46216;52.220;5.134;2022-07-23T11:10:55;102115.91;;;22.29;100.00
60373;BME280;46216;52.220;5.134;2022-07-23T11:16:15;102117.66;;;22.38;100.00
60373;BME280;46216;52.220;5.134;2022-07-23T11:24:06;102124.03;;;22.73;100.00
60373;BME280;46216;52.220;5.134;2022-07-23T11:32:00;102129.34;;;23.08;100.00
60373;BME280;46216;52.220;5.134;2022-07-23T11:36:57;102129.16;;;23.02;100.00
60373;BME280;46216;52.220;5.134;2022-07-23T11:39:25;102123.63;;;23.20;100.00
60373;BME280;46216;52.220;5.134;2022-07-23T11:41:51;102131.75;;;23.11;100.00
60373;BME280;46216;52.220;5.134;2022-07-23T11:44:26;102123.75;;;23.10;100.00
60373;BME280;46216;52.220;5.134;2022-07-23T11:49:29;102131.66;;;23.29;100.00
60373;BME280;46216;52.220;5.134;2022-07-23T11:52:08;102122.81;;;23.27;100.00
60373;BME280;46216;52.220;5.134;2022-07-23T11:54:36;102117.97;;;23.47;100.00
60373;BME280;46216;52.220;5.134;2022-07-23T11:57:03;102117.97;;;23.55;100.00
60373;BME280;46216;52.220;5.134;2022-07-23T11:59:31;102123.75;;;23.52;100.00
60373;BME280;46216;52.220;5.134;2022-07-23T12:01:59;102123.91;;;23.51;100.00
60373;BME280;46216;52.220;5.134;2022-07-23T12:04:46;102111.50;;;23.56;100.00
60373;BME280;46216;52.220;5.134;2022-07-23T12:10:19;102113.16;;;23.92;100.00
60373;BME280;46216;52.220;5.134;2022-07-23T12:12:44;102106.69;;;24.25;100.00
60373;BME280;46216;52.220;5.134;2022-07-23T12:15:12;102098.34;;;24.27;100.00
60373;BME280;46216;52.220;5.134;2022-07-23T12:17:40;102104.13;;;24.24;100.00
60373;BME280;46216;52.220;5.134;2022-07-23T12:20:08;102101.75;;;24.21;100.00
60373;BME280;46216;52.220;5.134;2022-07-23T12:22:44;102094.25;;;24.15;100.00
60373;BME280;46216;52.220;5.134;2022-07-23T12:25:15;102095.97;;;24.24;100.00
60373;BME280;46216;52.220;5.134;2022-07-23T12:27:42;102095.25;;;24.38;100.00
60373;BME280;46216;52.220;5.134;2022-07-23T12:30:17;102091.88;;;24.36;100.00
60373;BME280;46216;52.220;5.134;2022-07-23T12:32:45;102097.66;;;24.58;100.00
60373;BME280;46216;52.220;5.134;2022-07-23T12:35:11;102087.09;;;24.63;100.00
60373;BME280;46216;52.220;5.134;2022-07-23T12:37:39;102089.44;;;24.74;100.00
60373;BME280;46216;52.220;5.134;2022-07-23T12:43:01;102092.13;;;24.90;100.00
60373;BME280;46216;52.220;5.134;2022-07-23T12:45:28;102078.88;;;24.71;100.00
60373;BME280;46216;52.220;5.134;2022-07-23T12:48:03;102085.00;;;24.81;100.00
60373;BME280;46216;52.220;5.134;2022-07-23T12:55:34;102080.38;;;25.60;100.00
60373;BME280;46216;52.220;5.134;2022-07-23T12:58:08;102081.34;;;25.44;100.00
60373;BME280;46216;52.220;5.134;2022-07-23T13:00:59;102080.72;;;25.34;100.00
60373;BME280;46216;52.220;5.134;2022-07-23T13:03:37;102076.13;;;25.27;100.00
60373;BME280;46216;52.220;5.134;2022-07-23T13:06:04;102072.75;;;25.79;100.00
60373;BME280;46216;52.220;5.134;2022-07-23T13:08:30;102080.81;;;25.72;100.00
60373;BME280;46216;52.220;5.134;2022-07-23T13:10:57;102074.91;;;25.60;100.00
60373;BME280;46216;52.220;5.134;2022-07-23T13:13:24;102075.25;;;25.34;100.00
60373;BME280;46216;52.220;5.134;2022-07-23T13:15:50;102062.84;;;25.78;100.00